Time;durP1;ratioP1;P1;durP2;ratioP2;P2;SDS_P1;SDS_P2;PMS_P1;PMS_P2;Temp;Humidity;BMP_temperature;BMP_pressure;BME280_temperature;BME280_humidity;BME280_pressure;Samples;Min_cycle;Max_cycle;Signal;HPM_P1;HPM_P2
2023/08/11 09:25:43;;;;;;;;;7.33;7.33;;;;;26.41;49.02;100285.78;6185811;20;1821262;-48
2023/08/11 09:28:16;;;;;;;;;6.50;6.50;;;;;26.06;44.37;100285.28;6336459;20;2734680;-49
2023/08/11 09:30:48;;;;;;;;;7.20;6.40;;;;;26.55;47.49;100278.66;6360483;20;2731578;-50
2023/08/11 09:33:17;;;;;;;;;6.33;5.00;;;;;26.40;45.05;100281.31;6305166;20;2742998;-50
2023/08/11 09:35:45;;;;;;;;;8.00;7.33;;;;;26.55;46.09;100272.31;6338451;20;2750756;-48
2023/08/11 09:38:13;;;;;;;;;6.00;6.00;;;;;26.09;46.76;100274.97;6340199;20;2748253;-49
2023/08/11 09:40:41;;;;;;;;;5.33;5.33;;;;;25.89;47.09;100280.94;6336514;20;2742113;-58
2023/08/11 09:43:12;;;;;;;;;9.67;6.67;;;;;25.50;47.95;100273.50;6344590;20;2760084;-58
2023/08/11 09:45:40;;;;;;;;;5.00;5.00;;;;;26.14;46.26;100280.78;6336839;20;2733014;-58
2023/08/11 09:48:08;;;;;;;;;5.00;5.00;;;;;26.45;45.49;100278.00;6337213;20;2738852;-58
2023/08/11 09:50:40;;;;;;;;;4.40;4.40;;;;;26.54;44.22;100273.31;6362337;20;2733622;-57
2023/08/11 09:53:09;;;;;;;;;5.00;5.00;;;;;24.95;46.75;100268.78;6328859;20;2744487;-58
2023/08/11 09:55:41;;;;;;;;;6.60;6.60;;;;;25.25;47.33;100272.72;6326239;20;2735070;-58
2023/08/11 09:58:12;;;;;;;;;6.40;5.40;;;;;26.28;42.99;100271.78;6325339;20;2736947;-58
2023/08/11 10:00:43;;;;;;;;;5.00;5.00;;;;;26.29;43.55;100273.47;6328234;20;2731629;-58
2023/08/11 10:03:18;;;;;;;;;5.33;4.00;;;;;25.97;44.46;100263.53;6335146;20;2737835;-59
2023/08/11 10:05:50;;;;;;;;;4.00;4.00;;;;;26.71;42.26;100266.66;6356261;20;2745104;-59
2023/08/11 10:08:21;;;;;;;;;5.00;3.33;;;;;26.73;42.17;100270.09;6303891;20;2745167;-58
2023/08/11 10:10:50;;;;;;;;;4.00;4.00;;;;;27.24;41.73;100267.56;6336899;20;2743036;-59
2023/08/11 10:13:23;;;;;;;;;5.40;4.60;;;;;27.55;41.14;100263.75;6361557;20;2732577;-59
2023/08/11 10:15:55;;;;;;;;;3.67;3.67;;;;;26.43;40.13;100269.91;6335380;20;2737323;-59
2023/08/11 10:18:26;;;;;;;;;6.40;4.80;;;;;26.65;39.55;100256.38;6355926;20;2737843;-59
2023/08/11 10:20:56;;;;;;;;;4.40;4.00;;;;;27.52;40.97;100264.16;6327418;20;2750404;-59
2023/08/11 10:23:24;;;;;;;;;4.33;4.33;;;;;27.68;40.00;100263.09;6301566;20;2750410;-57
2023/08/11 10:25:55;;;;;;;;;5.40;5.00;;;;;27.02;38.31;100265.69;6358496;20;2745110;-58
2023/08/11 10:28:23;;;;;;;;;5.00;5.00;;;;;27.16;40.08;100275.88;6305332;20;2737589;-59
2023/08/11 10:30:58;;;;;;;;;5.33;5.33;;;;;26.60;41.12;100258.84;6334711;20;2741991;-58
2023/08/11 10:33:31;;;;;;;;;4.67;4.67;;;;;26.58;40.74;100256.25;6338628;20;2737801;-58
2023/08/11 10:36:00;;;;;;;;;5.33;5.33;;;;;27.42;41.59;100260.81;6325747;20;2743136;-58
2023/08/11 10:38:32;;;;;;;;;4.40;4.40;;;;;27.45;40.72;100263.19;6337063;20;2743091;-58
2023/08/11 10:41:10;;;;;;;;;4.20;4.20;;;;;26.86;40.01;100258.44;6305391;20;2751372;-58
2023/08/11 10:43:42;;;;;;;;;6.67;5.00;;;;;27.02;40.45;100254.66;6280378;20;2743064;-59
2023/08/11 10:46:23;;;;;;;;;4.80;4.80;;;;;26.98;39.19;100258.84;6330210;20;2745145;-59
2023/08/11 10:48:55;;;;;;;;;6.00;5.33;;;;;26.64;39.52;100252.75;6278532;20;2745159;-59
2023/08/11 10:51:28;;;;;;;;;5.00;5.00;;;;;27.30;39.56;100252.16;6335771;20;2740946;-59
2023/08/11 10:54:09;;;;;;;;;4.00;3.00;;;;;27.20;38.05;100241.41;6305123;20;2752465;-59
2023/08/11 10:56:44;;;;;;;;;4.67;4.67;;;;;27.53;38.09;100250.16;6282682;20;2742992;-59
2023/08/11 10:59:17;;;;;;;;;5.00;4.33;;;;;28.03;39.88;100247.63;6310305;20;2745140;-59
2023/08/11 11:01:50;;;;;;;;;4.00;4.00;;;;;27.91;37.28;100247.28;6315528;20;2733659;-59
2023/08/11 11:04:21;;;;;;;;;3.20;3.20;;;;;27.45;36.86;100247.50;6333797;20;2753464;-59
2023/08/11 11:06:51;;;;;;;;;4.00;4.00;;;;;25.80;39.13;100247.09;6308300;20;2752473;-59
2023/08/11 11:09:20;;;;;;;;;3.40;3.40;;;;;25.84;39.75;100242.09;6303106;20;2739886;-59
2023/08/11 11:11:51;;;;;;;;;4.00;4.00;;;;;25.14;40.23;100240.91;6281355;20;2748285;-59
2023/08/11 11:14:21;;;;;;;;;3.40;3.40;;;;;25.53;40.65;100239.28;6336862;20;2747166;-59
2023/08/11 11:16:49;;;;;;;;;5.33;5.00;;;;;26.30;39.85;100238.53;6277445;20;2742995;-58
2023/08/11 11:19:17;;;;;;;;;4.00;4.00;;;;;27.12;39.61;100224.91;6311319;20;2738920;-57
2023/08/11 11:21:47;;;;;;;;;5.00;5.00;;;;;27.34;37.13;100226.75;6336661;20;2742119;-59
2023/08/11 11:24:15;;;;;;;;;4.00;4.00;;;;;27.29;37.15;100223.72;6280279;20;2736843;-59
2023/08/11 11:26:43;;;;;;;;;2.67;2.67;;;;;27.90;37.52;100222.63;6308802;20;2735822;-59
2023/08/11 11:29:12;;;;;;;;;5.00;5.00;;;;;27.86;36.20;100221.28;6335322;20;2737816;-60
2023/08/11 11:31:41;;;;;;;;;4.33;4.33;;;;;27.68;37.08;100225.31;6292409;20;2752452;-60
2023/08/11 11:34:09;;;;;;;;;4.00;4.00;;;;;27.11;38.27;100218.53;6310336;20;2730526;-59
2023/08/11 11:36:37;;;;;;;;;5.33;3.67;;;;;26.45;38.29;100229.28;6307528;20;2747195;-59
2023/08/11 11:39:07;;;;;;;;;3.67;3.67;;;;;25.91;40.71;100226.59;6309508;20;2745865;-58
2023/08/11 11:41:35;;;;;;;;;5.00;5.00;;;;;25.24;39.32;100231.66;6310505;20;2748290;-57
2023/08/11 11:44:04;;;;;;;;;3.00;3.00;;;;;25.19;40.05;100227.53;6333113;20;2731583;-58
2023/08/11 11:46:34;;;;;;;;;5.80;3.00;;;;;25.13;38.17;100233.69;6300821;20;2748734;-57
2023/08/11 11:49:03;;;;;;;;;5.80;3.40;;;;;25.82;37.19;100233.13;6299872;20;2754522;-59
2023/08/11 11:51:47;;;;;;;;;3.40;3.40;;;;;26.52;36.50;100225.84;6302245;20;2752513;-58
2023/08/11 11:54:16;;;;;;;;;2.20;2.20;;;;;26.79;36.04;100230.75;6300922;20;2753415;-56
2023/08/11 11:56:45;;;;;;;;;3.00;3.00;;;;;26.55;32.89;100226.34;6304458;20;2753407;-57
2023/08/11 11:59:30;;;;;;;;;2.40;2.40;;;;;27.06;31.54;100222.91;6302255;20;2743053;-59
2023/08/11 12:02:00;;;;;;;;;4.40;4.40;;;;;27.02;32.30;100218.84;6300486;20;2736802;-59
2023/08/11 12:04:30;;;;;;;;;2.00;2.00;;;;;26.88;32.11;100224.16;6302817;20;2739885;-57
2023/08/11 12:06:59;;;;;;;;;4.00;4.00;;;;;27.28;32.21;100216.50;6274334;20;2736781;-56
2023/08/11 12:09:28;;;;;;;;;44.00;37.75;;;;;27.49;34.00;100225.88;6311010;20;3604578;-58
2023/08/11 12:11:56;;;;;;;;;6.00;4.00;;;;;27.78;34.30;100212.06;6317061;20;2737803;-58
2023/08/11 12:14:27;;;;;;;;;4.00;4.00;;;;;27.48;34.12;100208.50;6310062;20;2745113;-59
2023/08/11 12:16:57;;;;;;;;;2.33;2.33;;;;;27.44;33.72;100211.84;6308463;20;2740923;-57
2023/08/11 12:19:28;;;;;;;;;5.00;5.00;;;;;28.01;34.55;100211.06;6334613;20;2745087;-57
2023/08/11 12:21:56;;;;;;;;;4.67;4.67;;;;;27.84;35.65;100212.38;6275918;20;2742993;-59
2023/08/11 12:24:25;;;;;;;;;3.60;3.60;;;;;27.27;34.13;100217.53;6328621;20;2750308;-59
2023/08/11 12:26:53;;;;;;;;;6.00;6.00;;;;;27.77;33.84;100215.84;6284659;20;2744349;-51
2023/08/11 12:29:21;;;;;;;;;4.00;4.00;;;;;27.41;34.25;100218.59;6309802;20;2750373;-52
2023/08/11 12:31:50;;;;;;;;;4.00;4.00;;;;;27.47;32.57;100215.06;6330907;20;2750293;-49
2023/08/11 12:34:19;;;;;;;;;3.60;2.40;;;;;27.49;33.16;100212.09;6300547;20;2755558;-50
2023/08/11 12:36:47;;;;;;;;;3.00;3.00;;;;;27.66;33.51;100204.47;6280242;20;2739936;-51
2023/08/11 12:39:17;;;;;;;;;4.80;4.80;;;;;27.62;36.38;100204.03;6328993;20;2744135;-53
2023/08/11 12:41:46;;;;;;;;;5.40;3.80;;;;;28.08;35.73;100208.41;6302563;20;2748298;-51
2023/08/11 12:44:15;;;;;;;;;4.67;3.00;;;;;28.08;34.62;100208.41;6277672;20;2751478;-52
2023/08/11 12:46:44;;;;;;;;;5.40;3.40;;;;;27.52;34.56;100208.97;6332481;20;2747199;-54
2023/08/11 12:49:13;;;;;;;;;4.20;3.00;;;;;26.70;36.23;100207.09;6280332;20;2750354;-50
2023/08/11 12:51:43;;;;;;;;;4.00;3.00;;;;;26.26;37.43;100202.25;6302937;20;2756739;-52
2023/08/11 12:54:12;;;;;;;;;4.80;4.40;;;;;26.19;37.59;100206.78;6298926;20;2731925;-50
2023/08/11 12:56:41;;;;;;;;;3.40;3.40;;;;;25.77;39.08;100202.53;6300482;20;2743024;-52
2023/08/11 12:59:10;;;;;;;;;5.40;4.00;;;;;25.65;39.71;100206.75;6297538;20;2748210;-46
2023/08/11 13:01:38;;;;;;;;;5.67;5.67;;;;;25.49;40.42;100215.91;6278241;20;2738819;-50
2023/08/11 13:04:07;;;;;;;;;5.40;5.40;;;;;26.24;40.88;100205.19;6333254;20;2743025;-54
2023/08/11 13:06:35;;;;;;;;;46.00;38.67;;;;;26.74;37.59;100211.19;6276217;20;3595136;-52
2023/08/11 13:09:07;;;;;;;;;32.25;26.25;;;;;26.71;36.31;100206.03;6275489;20;3604702;-52
2023/08/11 13:11:35;;;;;;;;;59.33;45.67;;;;;26.89;35.61;100203.78;6305788;20;1900305;-52
2023/08/11 13:14:03;;;;;;;;;6.00;5.33;;;;;27.18;35.52;100204.91;6306925;20;2740961;-51
2023/08/11 13:16:35;;;;;;;;;4.60;4.60;;;;;27.36;35.81;100210.88;6336140;20;2731905;-52
2023/08/11 13:19:05;;;;;;;;;4.00;4.00;;;;;27.23;36.28;100205.19;6301310;20;2747465;-53
2023/08/11 13:21:34;;;;;;;;;2.20;2.20;;;;;26.97;37.57;100204.75;6292972;20;2744085;-50
2023/08/11 13:24:03;;;;;;;;;4.00;4.00;;;;;27.21;35.28;100201.75;6269435;20;2749247;-53
2023/08/11 13:26:32;;;;;;;;;4.00;4.00;;;;;27.43;35.55;100204.59;6298583;20;2747196;-55
2023/08/11 13:29:00;;;;;;;;;7.33;7.33;;;;;27.78;36.22;100198.28;6300091;20;2757089;-49
2023/08/11 13:31:29;;;;;;;;;3.20;3.20;;;;;27.93;36.11;100198.25;6323724;20;2735831;-48
2023/08/11 13:33:57;;;;;;;;;3.00;3.00;;;;;27.99;35.43;100203.00;6268377;20;2732573;-46
2023/08/11 13:36:25;;;;;;;;;7.33;4.33;;;;;27.45;37.01;100197.84;6302863;20;2748245;-49
2023/08/11 13:38:53;;;;;;;;;6.00;4.33;;;;;26.43;38.06;100192.81;6299630;20;2745117;-55
2023/08/11 13:41:24;;;;;;;;;5.00;4.17;;;;;26.52;38.56;100190.91;6348162;20;1792167;-51
2023/08/11 13:43:52;;;;;;;;;7.67;7.67;;;;;26.38;38.94;100195.25;6302455;20;2750310;-52
2023/08/11 13:46:20;;;;;;;;;10.00;9.00;;;;;26.48;38.66;100195.03;6297357;20;3477334;-51
2023/08/11 13:48:48;;;;;;;;;7.33;6.00;;;;;26.50;38.95;100184.69;6299238;20;2744059;-50
2023/08/11 13:51:17;;;;;;;;;3.20;3.00;;;;;27.03;38.83;100192.97;6325302;20;2729468;-51
2023/08/11 13:53:46;;;;;;;;;3.00;3.00;;;;;26.77;38.82;100194.25;6326373;20;2739932;-52
2023/08/11 13:56:14;;;;;;;;;8.00;6.67;;;;;26.27;39.85;100195.72;6268752;20;2744166;-50
2023/08/11 13:58:42;;;;;;;;;5.67;5.00;;;;;26.26;40.36;100191.25;6299386;20;2726520;-50
2023/08/11 14:01:10;;;;;;;;;6.33;6.33;;;;;27.01;39.83;100195.06;6302714;20;2731563;-54
2023/08/11 14:03:38;;;;;;;;;5.00;5.00;;;;;27.55;38.56;100197.56;6214213;20;2742041;-53
2023/08/11 14:06:07;;;;;;;;;6.00;4.00;;;;;27.26;38.12;100188.25;6300580;20;2737596;-52
2023/08/11 14:08:37;;;;;;;;;7.00;7.00;;;;;27.31;38.17;100188.53;6251892;20;4817856;-54
2023/08/11 14:11:06;;;;;;;;;4.00;4.00;;;;;27.53;37.65;100189.47;6276828;20;2744042;-52
2023/08/11 14:13:35;;;;;;;;;3.80;3.80;;;;;27.65;37.92;100189.84;6300528;20;2739938;-52
2023/08/11 14:16:04;;;;;;;;;4.00;4.00;;;;;27.02;37.81;100185.75;6298067;20;2743139;-52
2023/08/11 14:18:33;;;;;;;;;6.33;5.00;;;;;27.55;36.38;100189.28;6276090;20;2729485;-50
2023/08/11 14:21:02;;;;;;;;;3.60;3.60;;;;;27.70;36.56;100192.88;6326568;20;2744571;-52
2023/08/11 14:23:31;;;;;;;;;13.50;12.00;;;;;27.35;35.62;100191.75;6270394;20;2788889;-48
2023/08/11 14:25:59;;;;;;;;;9.00;8.00;;;;;27.04;36.85;100180.88;6273562;20;2743085;-46
2023/08/11 14:28:27;;;;;;;;;5.00;5.00;;;;;27.51;37.44;100191.53;6304633;20;2746225;-48
2023/08/11 14:30:56;;;;;;;;;5.00;4.00;;;;;27.52;35.87;100182.25;6330873;20;2745077;-50
2023/08/11 14:33:26;;;;;;;;;5.67;5.67;;;;;27.61;36.84;100191.25;6281082;20;2734793;-48
2023/08/11 14:35:55;;;;;;;;;4.00;4.00;;;;;27.82;38.28;100189.63;6332486;20;2734715;-58
2023/08/11 14:38:30;;;;;;;;;2.00;2.00;;;;;27.54;36.93;100187.56;6274042;20;2742093;-56
2023/08/11 14:40:58;;;;;;;;;5.00;5.00;;;;;27.96;37.02;100199.75;6307003;20;2744062;-59
2023/08/11 14:43:26;;;;;;;;;4.00;4.00;;;;;28.08;37.32;100200.97;6307879;20;2739930;-59
2023/08/11 14:45:56;;;;;;;;;3.00;2.00;;;;;27.64;37.97;100190.88;6328320;20;2742695;-58
2023/08/11 14:48:25;;;;;;;;;4.40;3.40;;;;;27.34;38.98;100184.53;6293239;20;2754480;-58
2023/08/11 14:50:56;;;;;;;;;4.00;4.00;;;;;27.17;37.87;100183.88;6297124;20;2743069;-56
2023/08/11 14:53:29;;;;;;;;;2.00;2.00;;;;;27.60;37.46;100188.72;6295710;20;2735763;-57
2023/08/11 14:55:58;;;;;;;;;1.80;1.80;;;;;27.35;37.69;100184.34;6330060;20;2729447;-58
2023/08/11 14:58:27;;;;;;;;;2.80;2.00;;;;;27.34;38.36;100179.03;6327198;20;2739889;-57
2023/08/11 15:00:56;;;;;;;;;2.20;2.00;;;;;26.72;39.28;100182.94;6294478;20;2733689;-57
2023/08/11 15:03:26;;;;;;;;;2.00;2.00;;;;;26.27;40.68;100180.03;6298044;20;2746161;-56
2023/08/11 15:05:56;;;;;;;;;3.60;2.60;;;;;25.86;40.90;100190.50;6295958;20;2740946;-57
2023/08/11 15:08:26;;;;;;;;;3.40;3.40;;;;;25.73;42.18;100187.47;6295756;20;2743208;-56
2023/08/11 15:10:56;;;;;;;;;1.00;1.00;;;;;25.43;42.43;100184.50;6297231;20;2726494;-56
2023/08/11 15:13:25;;;;;;;;;3.00;3.00;;;;;25.30;43.69;100189.69;6326180;20;2749759;-52
2023/08/11 15:15:54;;;;;;;;;3.80;3.00;;;;;25.37;43.26;100179.72;6298240;20;2748232;-58
2023/08/11 15:18:27;;;;;;;;;3.20;3.20;;;;;25.05;43.08;100187.00;6295280;20;2756579;-55
2023/08/11 15:20:58;;;;;;;;;2.80;2.80;;;;;25.08;43.08;100188.56;6295965;20;2754489;-56
2023/08/11 15:23:29;;;;;;;;;2.40;1.20;;;;;25.35;42.56;100192.78;6295186;20;2735772;-57
2023/08/11 15:25:58;;;;;;;;;5.80;2.00;;;;;25.42;42.23;100182.78;6327422;20;2750282;-57
2023/08/11 15:28:28;;;;;;;;;3.40;1.60;;;;;25.66;41.85;100195.56;6295124;20;2752355;-58
2023/08/11 15:30:59;;;;;;;;;3.00;3.00;;;;;25.70;39.69;100188.69;6297094;20;2754465;-58
2023/08/11 15:33:30;;;;;;;;;4.00;4.00;;;;;25.45;40.39;100187.94;6314877;20;3459608;-60
2023/08/11 15:35:59;;;;;;;;;3.40;3.00;;;;;26.05;38.82;100194.69;6327014;20;2739890;-59
2023/08/11 15:38:30;;;;;;;;;5.00;5.00;;;;;26.41;39.73;100194.91;6131509;20;2743106;-58
2023/08/11 15:41:00;;;;;;;;;3.00;3.00;;;;;26.63;38.78;100187.69;6327774;20;2739867;-58
2023/08/11 15:43:31;;;;;;;;;2.00;2.00;;;;;26.52;37.96;100196.41;6293970;20;2741001;-60
2023/08/11 15:46:02;;;;;;;;;3.00;3.00;;;;;26.67;39.89;100193.66;6293655;20;2752379;-59
2023/08/11 15:48:32;;;;;;;;;4.33;2.67;;;;;26.68;37.98;100200.91;6267141;20;2744076;-58
2023/08/11 15:51:01;;;;;;;;;3.40;3.40;;;;;26.53;38.24;100200.88;6324116;20;2745194;-59
2023/08/11 15:53:30;;;;;;;;;5.00;3.40;;;;;26.53;38.57;100202.75;6293834;20;2742030;-60
2023/08/11 15:56:01;;;;;;;;;2.60;2.60;;;;;26.49;38.41;100188.50;6323010;20;2750283;-59
2023/08/11 15:58:30;;;;;;;;;5.20;4.00;;;;;26.49;38.97;100192.09;6291452;20;2748219;-60
2023/08/11 16:01:02;;;;;;;;;3.40;3.40;;;;;26.40;38.06;100195.94;6292915;20;2750287;-59
2023/08/11 16:03:31;;;;;;;;;4.40;4.00;;;;;26.34;37.21;100198.59;6294483;20;2740943;-59
2023/08/11 16:06:00;;;;;;;;;4.33;4.00;;;;;26.24;37.68;100201.59;6271309;20;2743030;-59
2023/08/11 16:08:29;;;;;;;;;3.20;3.20;;;;;26.26;37.98;100199.50;6322800;20;2752419;-60
2023/08/11 16:10:59;;;;;;;;;3.80;3.80;;;;;26.30;38.26;100198.09;6294354;20;2733628;-60
2023/08/11 16:13:27;;;;;;;;;3.67;3.67;;;;;26.42;37.65;100199.38;6260970;20;2752400;-59
2023/08/11 16:15:56;;;;;;;;;3.40;3.40;;;;;26.21;37.07;100199.22;6317982;20;2735776;-56
2023/08/11 16:18:25;;;;;;;;;4.00;4.00;;;;;25.99;37.83;100199.00;6318577;20;2748286;-57
2023/08/11 16:20:55;;;;;;;;;3.00;3.00;;;;;26.00;39.26;100197.97;6285467;20;2748346;-58
2023/08/11 16:23:24;;;;;;;;;3.60;3.60;;;;;25.80;38.54;100203.06;6321613;20;2749271;-58
2023/08/11 16:25:53;;;;;;;;;4.40;4.40;;;;;25.79;39.38;100200.47;6294472;20;2748298;-58
2023/08/11 16:28:23;;;;;;;;;2.60;2.60;;;;;25.78;39.12;100204.28;6293678;20;2756660;-58
2023/08/11 16:30:52;;;;;;;;;3.00;3.00;;;;;25.70;38.96;100201.53;6293474;20;2732593;-58
2023/08/11 16:33:20;;;;;;;;;5.33;4.00;;;;;25.67;39.06;100205.50;6301005;20;2745079;-57
2023/08/11 16:35:50;;;;;;;;;4.00;4.00;;;;;25.56;39.00;100201.28;6326562;20;2744240;-58
2023/08/11 16:38:19;;;;;;;;;3.00;3.00;;;;;25.44;40.25;100202.72;6294106;20;2739982;-59
2023/08/11 16:40:47;;;;;;;;;5.67;5.67;;;;;25.38;39.87;100206.16;6269526;20;2736838;-59
2023/08/11 16:43:15;;;;;;;;;3.00;3.00;;;;;25.32;40.15;100198.63;6302765;20;2725381;-59
2023/08/11 16:45:44;;;;;;;;;3.80;3.80;;;;;25.26;40.83;100204.84;6324079;20;2746112;-59
2023/08/11 16:48:13;;;;;;;;;4.00;4.00;;;;;25.15;40.88;100200.56;6291561;20;2747211;-59
2023/08/11 16:50:46;;;;;;;;;3.60;3.60;;;;;25.15;41.17;100198.69;6292219;20;2747268;-59
2023/08/11 16:53:15;;;;;;;;;4.20;4.20;;;;;25.05;41.11;100188.91;6291638;20;2743572;-55
2023/08/11 16:55:44;;;;;;;;;2.20;2.20;;;;;24.85;42.62;100193.91;6290428;20;2734705;-56
2023/08/11 16:58:13;;;;;;;;;4.40;4.40;;;;;24.77;41.74;100193.94;6324646;20;2739974;-57
2023/08/11 17:00:42;;;;;;;;;3.33;3.33;;;;;24.69;42.44;100194.81;6269795;20;2744106;-57
2023/08/11 17:03:11;;;;;;;;;5.20;4.20;;;;;24.57;42.73;100194.31;6323162;20;2741982;-57
2023/08/11 17:05:40;;;;;;;;;3.80;3.80;;;;;24.56;44.29;100197.22;6323365;20;2737792;-56
2023/08/11 17:08:14;;;;;;;;;4.20;4.00;;;;;24.38;45.74;100194.63;6292597;20;2730255;-55
2023/08/11 17:10:44;;;;;;;;;3.80;3.80;;;;;24.20;47.25;100194.81;6321509;20;2748189;-55
2023/08/11 17:13:13;;;;;;;;;4.00;4.00;;;;;24.30;45.30;100196.34;6294105;20;2735697;-54
2023/08/11 17:15:41;;;;;;;;;4.00;4.00;;;;;24.14;46.28;100193.56;6300129;20;2748207;-57
2023/08/11 17:18:10;;;;;;;;;3.40;3.40;;;;;24.00;47.04;100197.00;6323442;20;2747163;-56
2023/08/11 17:20:39;;;;;;;;;2.00;2.00;;;;;23.91;46.83;100192.50;6291315;20;2750305;-59
2023/08/11 17:23:08;;;;;;;;;4.40;3.20;;;;;23.77;48.20;100200.34;6295899;20;2755518;-59
2023/08/11 17:25:37;;;;;;;;;5.40;4.20;;;;;23.68;48.25;100193.13;6295501;20;2740338;-58
2023/08/11 17:28:07;;;;;;;;;3.00;3.00;;;;;23.45;49.80;100196.44;6326863;20;2740968;-56
2023/08/11 17:30:36;;;;;;;;;5.80;4.80;;;;;23.18;51.22;100196.69;6326551;20;2737812;-58
2023/08/11 17:33:05;;;;;;;;;4.00;4.00;;;;;23.16;51.16;100195.97;6295638;20;2747211;-57
2023/08/11 17:35:35;;;;;;;;;4.40;4.00;;;;;23.05;51.79;100202.59;6325296;20;2748310;-59
2023/08/11 17:38:04;;;;;;;;;4.00;3.60;;;;;22.71;52.05;100197.91;6292678;20;2745079;-59
2023/08/11 17:40:34;;;;;;;;;6.20;6.20;;;;;22.61;53.15;100204.50;6289079;20;2733623;-59
2023/08/11 17:43:02;;;;;;;;;5.00;5.00;;;;;22.42;54.50;100205.56;6301176;20;2740924;-58
2023/08/11 17:45:31;;;;;;;;;4.00;4.00;;;;;22.28;55.45;100202.38;6322046;20;2748231;-57
2023/08/11 17:48:00;;;;;;;;;4.40;4.20;;;;;22.22;55.56;100210.31;6299426;20;2738823;-56
2023/08/11 17:50:28;;;;;;;;;5.67;4.67;;;;;22.02;55.47;100209.59;6302391;20;2733789;-44
2023/08/11 17:52:57;;;;;;;;;7.00;5.60;;;;;21.78;55.58;100208.31;6330864;20;2733742;-47
2023/08/11 17:55:27;;;;;;;;;6.00;5.00;;;;;21.78;56.70;100212.94;6330061;20;2730645;-45
2023/08/11 17:57:56;;;;;;;;;5.20;4.20;;;;;21.56;58.72;100217.78;6325536;20;2748295;-43
2023/08/11 18:00:25;;;;;;;;;5.20;5.00;;;;;21.25;61.59;100203.56;6296728;20;2740808;-46
2023/08/11 18:02:54;;;;;;;;;6.40;6.40;;;;;21.11;62.88;100210.34;6297579;20;2733645;-43
2023/08/11 18:05:23;;;;;;;;;5.80;4.20;;;;;21.00;63.57;100213.28;6324397;20;2741976;-45
2023/08/11 18:07:52;;;;;;;;;5.40;5.40;;;;;20.86;65.32;100217.34;6296798;20;2742029;-46
2023/08/11 18:10:22;;;;;;;;;6.00;5.40;;;;;20.66;67.30;100212.94;6324016;20;2736859;-44
2023/08/11 18:12:50;;;;;;;;;4.33;4.33;;;;;20.73;68.73;100214.94;6309116;20;2742087;-50
2023/08/11 18:15:19;;;;;;;;;6.40;5.60;;;;;20.70;70.09;100223.41;6329211;20;2742080;-46
2023/08/11 18:17:47;;;;;;;;;7.00;7.00;;;;;20.69;70.19;100224.41;6302964;20;2742166;-46
2023/08/11 18:20:19;;;;;;;;;6.00;6.00;;;;;20.43;72.68;100225.97;6324458;20;2738834;-58
2023/08/11 18:22:48;;;;;;;;;6.60;5.40;;;;;20.32;75.63;100224.28;6329688;20;2730611;-55
2023/08/11 18:25:17;;;;;;;;;5.20;5.20;;;;;20.10;76.59;100230.88;6325436;20;2724351;-58
2023/08/11 18:27:45;;;;;;;;;5.33;5.33;;;;;20.21;75.50;100230.72;6304505;20;2732710;-59
